Hualapai Flat, Nevada Weather observations

Data are for 10 minute period ending at time listed.
 Day   Time   Solar   Ave.   Ave.  Ave.  Vector  Max.   Baro.   Total    
  of    of     Rad.   Air    Rel.  Wind   Wind   Wind  Press.  Precip.   
Year   Day            Temp.  Hum.  Speed  Dir.   Gust                    
2016   (PST)  Kw/m2    F      %     mph   deg.    mph    mb.     in.     
-------------------------------------------------------------------------
 210   10:30   0.57   93.8    14    2.8   160     6.7   878.2    0.00 
 210   10:40   0.67   94.5    16    3.5   179     6.6   878.2    0.00 
 210   10:50   0.81   94.0    17    2.3   162     6.9   878.2    0.00 
 210   11:00   0.81   94.3    14    1.4   235     3.1   878.0    0.00 
 210   11:10   0.84   95.0    16    4.1   179     9.2   878.0    0.00 
 210   11:20   0.72   95.1    13    1.9   193     6.9   877.9    0.00 
 210   11:30   0.39   97.5    13    1.6   176     3.4   877.8    0.00 
 210   11:40   0.89   96.3    19    2.9   158     5.3   877.8    0.00 
 210   11:50   0.90   96.5    15    2.6   133     7.6   877.6    0.00 
 210   12:00   0.91   94.5    15    3.8   105     7.7   877.5    0.00 
 210   12:10   0.90   96.7    15    1.0   177     3.1   877.3    0.00 
 210   12:20   0.90   98.1    15    2.7   132     5.6   877.2    0.00 
 210   12:30   0.84   98.1    17    2.5   181     8.0   877.1    0.00 
 210   12:40   0.89   97.2    15    4.2   134     9.1   877.0    0.00 
 210   12:50   0.38   96.8    15    3.4   124     8.4   876.8    0.00 
 210   13:00   0.57   97.5    15    4.0   188     7.4   876.6    0.00 
 210   13:10   0.87   97.3    14    4.0    86     8.0   876.5    0.00 
 210   13:20   0.85   97.2    15    4.4   110    12.0   876.5    0.00 
 210   13:30   0.84   97.6    16    5.7   194    11.3   876.4    0.00 
 210   13:40   0.55   98.5    17    2.9   166    12.7   876.2    0.00 
 210   13:50   0.76   96.7    16    7.2   103    14.2   876.1    0.00 
 210   14:00   0.56   96.8    16    4.6   155    11.6   876.0    0.00 
 210   14:10   0.62   98.2    18    5.9   133    12.9   875.9    0.00 
 210   14:20   0.62   97.3    21   10.5   198    16.9   875.7    0.00 
 210   14:30   0.71   96.9    20    4.1   211    13.4   875.6    0.00 
 210   14:40   0.70   97.9    18    8.3   241    16.0   875.5    0.00 
 210   14:50   0.32   96.9    21   10.2   196    18.8   875.5    0.00 
 210   15:00   0.54   96.6    22    6.4   207    14.9   875.4    0.00 
 210   15:10   0.33   98.3    18    2.1   122     5.5   875.2    0.00 
 210   15:20   0.50   99.3    20    8.5   221    17.6   875.2    0.00 
 210   15:30   0.29   97.0    17    7.5   231    14.2   875.2    0.00 
 210   15:40   0.56   96.8    17    9.4   248    18.3   875.0    0.00 
 210   15:50   0.52   97.9    15    2.9   189     8.4   874.9    0.00 
 210   16:00   0.43   97.5    18    5.8   251    10.3   874.9    0.00 
 210   16:10   0.49   98.0    18    3.2   175    11.8   874.8    0.00 
 210   16:20   0.45   98.1    22    5.7   214     9.6   874.7    0.00 
 210   16:30   0.37   97.0    18    8.0   259    12.3   874.7    0.00 
 210   16:40   0.06   94.1    18    9.7   247    16.5   874.6    0.00 
 210   16:50   0.16   93.3    17   10.6   258    16.8   874.5    0.00 
 210   17:00   0.27   95.2    18    6.8   251     9.8   874.3    0.00 
 210   17:10   0.00   97.2    22    3.5   219     8.2   874.2    0.00 
 210   17:20   0.07   97.0    14    8.6   297    14.8   874.1    0.00 
 210   17:30   0.24   96.8    14    8.6   290    14.5   874.1    0.00 
 210   17:40   0.20   97.2    13    8.2   302    12.1   874.0    0.00 
 210   17:50   0.17   95.8    17    5.3   282    11.0   874.0    0.00 
 210   18:00   0.08   92.8    19    8.4   246    12.2   874.0    0.00 
 210   18:10   0.08   92.3    16    8.9   260    13.6   873.9    0.00 
 210   18:20   0.09   94.4    15    7.8   275    12.1   873.9    0.00 
 210   18:30   0.07   93.6    15    7.0   270    10.1   873.9    0.00 
 210   18:40   0.05   92.9    15    6.0   275     8.6   873.9    0.00 
 210   18:50   0.04   93.0    14    4.7   280     6.1   874.0    0.00 
 210   19:00   0.02   93.8    13    4.6   258     5.4   874.0    0.00 
 210   19:10   0.01   92.6    14    5.5   266     6.4   873.9    0.00 
 210   19:20   0.01   90.4    14    6.6   263     9.9   873.9    0.00 
 210   19:30   0.00   90.7    14    9.1   309    14.5   873.9    0.00 
 210   19:40   0.00   90.3    16    7.3   328    10.4   874.0    0.00 
 210   19:50   0.00   86.3    19    6.4   328     8.3   874.0    0.00 
 210   20:00   0.00   87.8    15    8.2   310    11.3   874.1    0.00 
 210   20:10   0.00   89.9    14    8.6   310    11.4   874.2    0.00 
 210   20:20   0.00   89.2    14    8.4   322    12.1   874.4    0.00 
 210   20:30   0.00   85.9    17    7.6   328     9.5   874.6    0.00 
 210   20:40   0.00   85.9    15    7.6   317    10.7   874.6    0.00 
 210   20:50   0.00   86.8    14    7.2   309    11.2   874.7    0.00 
 210   21:00   0.00   87.7    14    9.5   306    12.7   874.8    0.00 
 210   21:10   0.00   86.8    14    7.5   295    10.7   874.9    0.00 
 210   21:20   0.00   85.7    14    8.0   304    12.0   874.9    0.00 
 210   21:30   0.00   87.3    14    9.1   313    14.0   875.0    0.00 
 210   21:40   0.00   87.7    14    9.5   311    13.8   875.0    0.00 
 210   21:50   0.00   87.2    14    9.8   304    14.5   875.0    0.00 
 210   22:00   0.00   88.1    13   11.4   311    16.7   875.0    0.00 
 210   22:10   0.00   88.3    13   11.4   316    16.7   875.0    0.00 
 210   22:20   0.00   87.3    14   10.8   316    14.6   875.0    0.00 
 210   22:30   0.00   86.8    14   10.4   320    15.4   875.0    0.00 
 210   22:40   0.00   85.4    15    9.2   331    13.8   875.1    0.00 
 210   22:50   0.00   81.9    19    6.4   346     9.9   875.1    0.00 
 210   23:00   0.00   81.4    19    6.6   337     9.4   875.1    0.00 
 210   23:10   0.00   81.2    19    6.5   337     8.7   875.1    0.00 
 210   23:20   0.00   80.2    20    4.5     2     7.2   875.1    0.00 
 210   23:30   0.00   80.0    19    3.3    14     4.9   875.1    0.00 
 210   23:40   0.00   80.0    19    2.3   350     3.5   875.2    0.00 
 210   23:50   0.00   81.1    17    1.5     7     3.9   875.2    0.00 
 211    0:00   0.00   81.8    17    2.0   321     6.7   875.2    0.00 
 211    0:10   0.00   81.4    18    2.9     7     8.0   875.2    0.00 
 211    0:20   0.00   83.2    16    4.1    13    11.1   875.3    0.00 
 211    0:30   0.00   83.4    17    7.2   346    16.7   875.2    0.00 
 211    0:40   0.00   83.9    16    8.6   339    14.8   875.3    0.00 
 211    0:50   0.00   82.5    17   10.2   326    15.5   875.2    0.00 
 211    1:00   0.00   82.7    17    8.3   316    12.3   875.2    0.00 
 211    1:10   0.00   82.3    16    7.0   314    11.4   875.2    0.00 
 211    1:20   0.00   80.7    20    5.2   344     9.6   875.2    0.00 
 211    1:30   0.00   78.7    21    8.6   328    11.5   875.2    0.00 
 211    1:40   0.00   79.0    20    8.8   309    10.5   875.2    0.00 
 211    1:50   0.00   79.1    19    7.7   305    10.4   875.2    0.00 
 211    2:00   0.00   80.1    19    7.3   321    10.0   875.2    0.00 
 211    2:10   0.00   80.0    20    7.3   346    10.7   875.3    0.00 
 211    2:20   0.00   76.1    23    4.6    32     6.5   875.4    0.00 
 211    2:30   0.00   77.1    20    2.8    38     4.6   875.5    0.00 
 211    2:40   0.00   79.2    17    3.0   298     5.4   875.4    0.00 
 211    2:50   0.00   76.2    20    4.6   265     7.0   875.4    0.00 
 211    3:00   0.00   71.0    26    2.9   344     6.6   875.5    0.00 
 211    3:10   0.00   71.8    23    4.3   329     5.6   875.6    0.00 
 211    3:20   0.00   73.0    24    6.8   314     8.6   875.6    0.00 
 211    3:30   0.00   73.0    24    6.9   313     8.3   875.6    0.00 
 211    3:40   0.00   75.1    23    5.7   332    10.4   875.6    0.00 
 211    3:50   0.00   75.0    22    5.6   334     9.3   875.7    0.00 
 211    4:00   0.00   76.1    22    7.7   321    11.3   875.6    0.00 
 211    4:10   0.00   75.2    23    6.0   324     9.0   875.6    0.00 
 211    4:20   0.00   73.5    24    7.2   319     8.9   875.6    0.00 
 211    4:30   0.00   73.8    24    6.5   325     8.0   875.6    0.00 
 211    4:40   0.00   71.4    26    6.2   320     6.9   875.7    0.00 
 211    4:50   0.00   70.4    27    5.6   321     6.7   875.7    0.00 
 211    5:00   0.01   69.3    28    3.6   348     5.7   875.9    0.00 
 211    5:10   0.01   67.6    28    2.0   134     4.2   876.1    0.00 
 211    5:20   0.04   66.2    32    2.2   210     2.9   876.2    0.00 
 211    5:30   0.06   66.7    34    2.6   198     3.4   876.3    0.00 
 211    5:40   0.09   68.5    32    3.5   236     4.5   876.4    0.00 
 211    5:50   0.07   70.8    27    2.8   253     4.0   876.4    0.00 
 211    6:00   0.02   72.5    24    2.6   260     4.2   876.4    0.00 
 211    6:10   0.15   74.0    28    3.9   268     4.6   876.4    0.00 
 211    6:20   0.13   75.5    23    2.3   280     4.3   876.5    0.00 
 211    6:30   0.11   78.6    32    0.1   285     1.1   876.5    0.00 
 211    6:40   0.08   81.8    33    0.5    47     1.7   876.5    0.00 
 211    6:50   0.27   79.7    36    2.0    76     2.6   876.6    0.00 
 211    7:00   0.23   80.2    32    0.9    74     2.2   876.6    0.00 
 211    7:10   0.35   84.0    28    0.0     0     0.0   876.4    0.00 
 211    7:20   0.39   88.5    29    0.6   192     1.5   876.4    0.00 
 211    7:30   0.42   89.9    28    2.3   182     3.1   876.4    0.00 
 211    7:40   0.45   88.4    27    1.8   169     2.7   876.3    0.00 
 211    7:50   0.49   86.1    28    2.5   151     3.6   876.3    0.00 
 211    8:00   0.52   83.7    30    3.7   145     5.3   876.3    0.00 
 211    8:10   0.55   83.8    30    2.5   147     4.8   876.3    0.00 
 211    8:20   0.57   84.4    32    3.6   141     6.4   876.3    0.00 
 211    8:30   0.60   83.9    29    4.5   138     6.4   876.3    0.00 
 211    8:40   0.63   84.5    30    3.7   155     5.8   876.2    0.00 
 211    8:50   0.65   86.9    28    3.6   163     5.5   876.2    0.00 
 211    9:00   0.68   89.1    27    3.8   176     5.2   876.1    0.00 
 211    9:10   0.70   90.4    26    3.0   196     4.2   876.0    0.00 
 211    9:20   0.63   91.5    25    2.1   193     4.4   875.9    0.00 
 211    9:30   0.58   92.8    23    2.4   209     3.9   875.9    0.00 
 211    9:40   0.00   93.0    24    3.4   208     4.5   875.9    0.00 
 211    9:50   0.65   92.5    22    2.9   150     4.6   875.9    0.00 
 211   10:00   0.75   92.7    24    2.0   217     4.0   875.9    0.00 
 211   10:10   0.55   94.3    22    1.5   209     3.7   875.9    0.00 
 211   10:20   0.61   95.4    20    2.4   177     4.0   875.9    0.00 

Return to Hualapai Flat graphs page.


Western Regional Climate Center,wrcc@dri.edu